Time;durP1;ratioP1;P1;durP2;ratioP2;P2;SDS_P1;SDS_P2;PMS_P1;PMS_P2;Temp;Humidity;BMP_temperature;BMP_pressure;BME280_temperature;BME280_humidity;BME280_pressure;Samples;Min_cycle;Max_cycle;Signal;HPM_P1;HPM_P2
2021/11/26 00:00:22;;;;;;;38.58;18.00;;;;;;;-1.68;100.00;91983.28;2094933;28;20021;-86
2021/11/26 00:01:23;;;;;;;36.70;17.25;;;;;;;-1.71;100.00;91986.63;2091622;28;20541;-90
2021/11/26 00:02:26;;;;;;;37.35;16.30;;;;;;;-1.61;100.00;91986.72;2105877;28;20023;-86
2021/11/26 00:03:28;;;;;;;36.38;17.75;;;;;;;-1.67;100.00;91985.53;2104808;28;20032;-88
2021/11/26 00:04:28;;;;;;;35.80;16.85;;;;;;;-1.55;100.00;91981.88;2098792;28;20024;-88
2021/11/26 00:05:29;;;;;;;48.28;16.52;;;;;;;-1.66;100.00;91979.19;2096210;28;20032;-88
2021/11/26 00:06:31;;;;;;;33.83;16.55;;;;;;;-1.64;100.00;91990.06;2095470;28;20031;-89
2021/11/26 00:07:32;;;;;;;46.70;18.20;;;;;;;-1.62;100.00;91977.34;2090457;28;20062;-86
2021/11/26 00:08:33;;;;;;;42.17;17.00;;;;;;;-1.57;100.00;91974.38;2102708;28;20012;-87
2021/11/26 00:09:35;;;;;;;36.40;16.75;;;;;;;-1.51;100.00;91972.16;2108998;28;20027;-88
2021/11/26 00:10:36;;;;;;;33.00;16.60;;;;;;;-1.62;100.00;91976.59;2105948;27;20029;-87
2021/11/26 00:11:37;;;;;;;41.67;17.25;;;;;;;-1.68;100.00;91978.81;2106818;28;20047;-89
2021/11/26 00:12:50;;;;;;;40.30;16.40;;;;;;;-1.69;100.00;91971.31;2090646;28;20020;-87
2021/11/26 00:14:04;;;;;;;35.78;16.23;;;;;;;-1.68;100.00;91963.09;2108495;28;20020;-87
2021/11/26 00:15:15;;;;;;;33.95;15.45;;;;;;;-1.68;100.00;91957.09;2109961;27;20107;-87
2021/11/26 00:16:18;;;;;;;37.63;16.15;;;;;;;-1.55;100.00;91953.03;2114291;28;20047;-88
2021/11/26 00:17:20;;;;;;;38.35;16.98;;;;;;;-1.69;100.00;91953.72;2098720;28;20020;-86
2021/11/26 00:18:31;;;;;;;34.53;16.25;;;;;;;-1.66;100.00;91960.88;2098720;28;20021;-89
2021/11/26 00:19:32;;;;;;;32.35;16.40;;;;;;;-1.50;100.00;91957.91;2113847;27;20050;-90
2021/11/26 00:20:35;;;;;;;33.35;15.70;;;;;;;-1.58;100.00;91965.03;2124124;27;20656;-87
2021/11/26 00:21:38;;;;;;;31.20;16.67;;;;;;;-1.54;100.00;91954.53;2115399;28;20034;-88
2021/11/26 00:22:40;;;;;;;37.10;16.50;;;;;;;-1.56;100.00;91960.16;2098794;28;20021;-89
2021/11/26 00:23:41;;;;;;;37.13;15.88;;;;;;;-1.61;100.00;91957.16;2105490;28;20115;-90
2021/11/26 00:24:43;;;;;;;32.33;15.20;;;;;;;-1.55;100.00;91963.53;2102985;28;20461;-89
2021/11/26 00:25:44;;;;;;;37.60;17.80;;;;;;;-1.52;100.00;91965.41;2097330;28;20025;-91
2021/11/26 00:26:47;;;;;;;31.10;15.93;;;;;;;-1.61;100.00;91962.38;2098761;28;20020;-89
2021/11/26 00:27:48;;;;;;;34.72;16.10;;;;;;;-1.59;100.00;91960.13;2107301;28;20035;-91
2021/11/26 00:28:49;;;;;;;35.65;17.23;;;;;;;-1.51;100.00;91956.44;2098918;28;20066;-91
2021/11/26 00:29:50;;;;;;;35.70;17.23;;;;;;;-1.41;100.00;91952.34;2096023;28;20511;-88
2021/11/26 00:30:53;;;;;;;33.90;16.98;;;;;;;-1.44;100.00;91945.25;2098635;28;20070;-90
2021/11/26 00:31:54;;;;;;;32.30;16.40;;;;;;;-1.35;100.00;91945.66;2100740;28;20029;-89
2021/11/26 00:32:55;;;;;;;32.15;16.33;;;;;;;-1.49;100.00;91950.81;2098453;28;20086;-91
2021/11/26 00:33:58;;;;;;;35.40;16.02;;;;;;;-1.53;100.00;91951.56;2099341;28;20048;-90
2021/11/26 00:35:05;;;;;;;31.15;15.38;;;;;;;-1.56;100.00;91941.81;2109652;28;20106;-89
2021/11/26 00:36:07;;;;;;;30.48;16.00;;;;;;;-1.49;100.00;91942.94;2107810;28;20032;-88
2021/11/26 00:37:07;;;;;;;37.78;17.30;;;;;;;-1.52;100.00;91941.84;2115305;28;20027;-90
2021/11/26 00:38:09;;;;;;;32.50;15.68;;;;;;;-1.56;100.00;91939.19;2106760;28;20027;-88
2021/11/26 00:39:21;;;;;;;35.53;16.10;;;;;;;-1.57;100.00;91937.69;2113908;28;20056;-88
2021/11/26 00:40:22;;;;;;;33.60;15.57;;;;;;;-1.60;100.00;91940.31;2110608;28;20023;-89
2021/11/26 00:41:24;;;;;;;33.40;16.42;;;;;;;-1.60;100.00;91933.19;2106692;28;20024;-88
2021/11/26 00:42:25;;;;;;;32.60;16.63;;;;;;;-1.65;100.00;91930.94;2123768;27;20471;-86
2021/11/26 00:43:26;;;;;;;30.92;16.83;;;;;;;-1.60;100.00;91937.69;2112485;28;20408;-88
2021/11/26 00:44:27;;;;;;;31.42;15.80;;;;;;;-1.53;100.00;91948.94;2106699;28;20024;-86
2021/11/26 00:45:28;;;;;;;33.08;16.55;;;;;;;-1.56;100.00;91941.06;2104537;28;20031;-87
2021/11/26 00:46:29;;;;;;;32.80;15.75;;;;;;;-1.53;100.00;91951.56;2102008;28;20086;-89
2021/11/26 00:47:30;;;;;;;35.75;16.67;;;;;;;-1.56;100.00;91948.94;2092450;28;20110;-87
2021/11/26 00:48:31;;;;;;;32.17;15.18;;;;;;;-1.58;100.00;91951.16;2098735;28;20099;-88
2021/11/26 00:49:32;;;;;;;34.33;16.80;;;;;;;-1.57;100.00;91952.66;2106523;28;20016;-88
2021/11/26 00:50:35;;;;;;;37.10;17.83;;;;;;;-1.60;100.00;91958.63;2104383;28;20238;-89
2021/11/26 00:51:36;;;;;;;33.97;16.05;;;;;;;-1.60;100.00;91951.53;2111513;28;20027;-89
2021/11/26 00:52:37;;;;;;;33.33;16.10;;;;;;;-1.64;100.00;91948.13;2115095;28;20031;-89
2021/11/26 00:53:38;;;;;;;36.20;17.27;;;;;;;-1.61;100.00;91950.03;2115273;28;20030;-87
2021/11/26 00:54:39;;;;;;;31.95;15.38;;;;;;;-1.60;100.00;91950.78;2104534;28;20527;-88
2021/11/26 00:55:40;;;;;;;33.67;16.60;;;;;;;-1.56;100.00;91952.28;2096116;28;20021;-87
2021/11/26 00:56:41;;;;;;;30.45;15.57;;;;;;;-1.51;100.00;91956.44;2103927;28;20613;-85
2021/11/26 00:57:42;;;;;;;34.50;16.40;;;;;;;-1.43;100.00;91946.72;2106568;28;20023;-89
2021/11/26 00:58:43;;;;;;;33.85;15.90;;;;;;;-1.53;100.00;91948.19;2115027;28;20399;-87
2021/11/26 00:59:44;;;;;;;29.05;15.35;;;;;;;-1.47;100.00;91943.34;2124798;27;20027;-90
2021/11/26 01:00:45;;;;;;;33.63;16.73;;;;;;;-1.42;100.00;91951.59;2114977;28;20024;-87
2021/11/26 01:01:46;;;;;;;34.47;16.80;;;;;;;-1.47;100.00;91949.34;2098410;28;20150;-88
2021/11/26 01:02:47;;;;;;;30.48;15.77;;;;;;;-1.42;100.00;91943.00;2102588;28;20054;-89
2021/11/26 01:03:48;;;;;;;33.28;15.93;;;;;;;-1.47;100.00;91944.09;2090260;28;20115;-87
2021/11/26 01:04:49;;;;;;;34.40;15.93;;;;;;;-1.55;100.00;91945.94;2098290;28;20020;-90
2021/11/26 01:05:50;;;;;;;34.58;16.10;;;;;;;-1.53;100.00;91941.09;2114323;28;20422;-89
2021/11/26 01:06:51;;;;;;;32.92;16.67;;;;;;;-1.52;100.00;91934.72;2098303;28;20024;-87
2021/11/26 01:07:52;;;;;;;34.67;16.85;;;;;;;-1.50;100.00;91930.97;2097009;28;20493;-86
2021/11/26 01:08:53;;;;;;;34.97;16.33;;;;;;;-1.50;100.00;91928.34;2114972;28;20110;-87
2021/11/26 01:10:49;;;;;;;39.63;17.20;;;;;;;-1.53;100.00;91932.47;2120401;27;20035;-87
2021/11/26 01:11:50;;;;;;;31.77;15.00;;;;;;;-1.68;100.00;91925.66;2123503;27;20126;-90
2021/11/26 01:12:53;;;;;;;34.50;16.15;;;;;;;-1.67;100.00;91930.53;2117487;27;20031;-89
2021/11/26 01:13:54;;;;;;;30.35;14.27;;;;;;;-1.69;100.00;91921.56;2102989;28;20069;-89
2021/11/26 01:14:55;;;;;;;32.67;15.80;;;;;;;-1.55;100.00;91924.22;2106610;28;20019;-88
2021/11/26 01:15:56;;;;;;;37.00;16.45;;;;;;;-1.48;100.00;91920.88;2098317;28;20048;-88
2021/11/26 01:16:57;;;;;;;31.80;15.57;;;;;;;-1.53;100.00;91920.13;2105470;28;20024;-87
2021/11/26 01:17:58;;;;;;;32.53;15.60;;;;;;;-1.47;100.00;91922.38;2110630;28;20047;-90
2021/11/26 01:19:00;;;;;;;33.63;16.67;;;;;;;-1.57;100.00;91908.13;2115164;28;20027;-87
2021/11/26 01:20:01;;;;;;;33.28;16.75;;;;;;;-1.45;100.00;91909.66;2113749;28;20035;-86
2021/11/26 01:21:06;;;;;;;32.63;15.50;;;;;;;-1.45;100.00;91914.88;2097444;28;20491;-88
2021/11/26 01:22:08;;;;;;;32.20;15.93;;;;;;;-1.42;100.00;91907.03;2099487;28;20016;-87
2021/11/26 01:23:09;;;;;;;30.58;16.15;;;;;;;-1.40;100.00;91901.44;2100295;28;20027;-87
2021/11/26 01:24:10;;;;;;;36.15;16.85;;;;;;;-1.22;100.00;91894.38;2098250;28;20546;-86
2021/11/26 01:25:12;;;;;;;36.33;16.30;;;;;;;-1.43;100.00;91902.19;2090047;28;20140;-89
2021/11/26 01:26:13;;;;;;;32.30;16.25;;;;;;;-1.46;100.00;91900.28;2090556;28;20021;-88
2021/11/26 01:27:14;;;;;;;30.80;15.30;;;;;;;-1.48;100.00;91897.31;2096808;28;20024;-88
2021/11/26 01:28:15;;;;;;;31.55;15.98;;;;;;;-1.37;100.00;91898.06;2106400;28;20555;-87
2021/11/26 01:29:16;;;;;;;32.40;15.63;;;;;;;-1.47;100.00;91899.56;2104338;28;20016;-91
2021/11/26 01:30:33;;;;;;;32.42;16.00;;;;;;;-1.43;100.00;91902.19;2091016;28;20500;-87
2021/11/26 01:32:09;;;;;;;29.50;14.52;;;;;;;-1.31;100.00;91897.34;2101903;28;20036;-88
2021/11/26 01:33:11;;;;;;;31.42;14.40;;;;;;;-1.22;100.00;91891.00;2102875;28;20027;-88
2021/11/26 01:34:12;;;;;;;32.30;15.20;;;;;;;-1.39;100.00;91895.09;2090148;28;20032;-87
2021/11/26 01:35:13;;;;;;;34.20;15.88;;;;;;;-1.38;100.00;91889.47;2089947;28;20056;-86
2021/11/26 01:36:14;;;;;;;32.88;15.13;;;;;;;-1.42;100.00;91885.34;2089665;28;20029;-88
2021/11/26 01:37:15;;;;;;;31.35;16.05;;;;;;;-1.37;100.00;91884.97;2106205;28;20031;-86
2021/11/26 01:38:17;;;;;;;31.98;15.85;;;;;;;-1.45;100.00;91886.06;2096000;28;20024;-86
2021/11/26 01:39:18;;;;;;;32.70;16.77;;;;;;;-1.43;100.00;91875.97;2114905;28;20106;-87
2021/11/26 01:40:20;;;;;;;35.28;16.40;;;;;;;-1.39;100.00;91880.09;2114925;28;20406;-91
2021/11/26 01:41:21;;;;;;;35.00;17.08;;;;;;;-1.06;100.00;91875.66;2106320;28;20115;-88
2021/11/26 01:42:22;;;;;;;34.65;16.15;;;;;;;-1.29;100.00;91876.75;2089133;28;20515;-87
2021/11/26 01:43:24;;;;;;;39.22;16.35;;;;;;;-1.31;100.00;91875.63;2096033;28;20036;-89
2021/11/26 01:44:30;;;;;;;36.65;17.00;;;;;;;-1.31;100.00;91875.63;2104565;28;20024;-87
2021/11/26 01:45:52;;;;;;;37.78;15.00;;;;;;;-1.40;100.00;91877.88;2105787;28;20184;-89
2021/11/26 01:46:56;;;;;;;31.13;15.23;;;;;;;-1.48;100.00;91881.59;2101370;28;20024;-86
2021/11/26 01:47:57;;;;;;;30.35;15.05;;;;;;;-1.53;100.00;91874.84;2092568;28;20020;-87
2021/11/26 01:48:58;;;;;;;38.20;16.45;;;;;;;-1.54;100.00;91878.56;2103634;28;20031;-86
2021/11/26 01:50:00;;;;;;;36.63;17.58;;;;;;;-1.59;100.00;91877.03;2095935;28;20275;-87
2021/11/26 01:51:02;;;;;;;31.80;15.10;;;;;;;-1.56;100.00;91883.44;2089812;28;20056;-90
2021/11/26 01:52:04;;;;;;;35.42;15.50;;;;;;;-1.60;100.00;91880.03;2090832;28;20037;-87
2021/11/26 01:53:05;;;;;;;41.78;18.30;;;;;;;-1.58;100.00;91888.28;2090092;28;20730;-88
2021/11/26 01:54:08;;;;;;;33.50;16.35;;;;;;;-1.78;100.00;91883.34;2098137;28;20078;-87
2021/11/26 01:55:10;;;;;;;39.03;18.13;;;;;;;-1.80;100.00;91875.13;2098189;28;20032;-89
2021/11/26 01:56:11;;;;;;;35.10;16.02;;;;;;;-1.74;100.00;91883.38;2114601;28;20023;-87
2021/11/26 01:57:12;;;;;;;37.42;17.35;;;;;;;-1.74;100.00;91883.38;2098145;28;20020;-87
2021/11/26 01:58:14;;;;;;;35.85;17.45;;;;;;;-1.79;100.00;91875.88;2089822;28;20087;-88
2021/11/26 01:59:14;;;;;;;37.78;17.00;;;;;;;-1.71;100.00;91885.25;2085803;28;20112;-89
2021/11/26 02:00:27;;;;;;;38.08;17.33;;;;;;;-1.55;100.00;91875.19;2089660;28;20385;-87
2021/11/26 02:01:28;;;;;;;29.73;16.30;;;;;;;-1.66;100.00;91876.28;2107902;28;20063;-85
2021/11/26 02:02:29;;;;;;;37.58;17.42;;;;;;;-1.65;100.00;91878.53;2105901;28;20020;-88
2021/11/26 02:04:16;;;;;;;32.60;16.08;;;;;;;-1.60;100.00;91880.03;2091953;28;20031;-88
2021/11/26 02:05:17;;;;;;;29.40;14.18;;;;;;;-1.70;100.00;91875.53;2096534;28;20021;-91
2021/11/26 02:06:18;;;;;;;32.58;16.83;;;;;;;-1.62;100.00;91877.06;2097876;28;20078;-87
2021/11/26 02:09:00;;;;;;;;;;;;;;;-1.67;100.00;91875.50;2146171;27;20182;-90
2021/11/26 02:10:02;;;;;;;25.42;12.73;;;;;;;-1.68;100.00;91871.41;2128220;27;19972;-86
2021/11/26 02:11:10;;;;;;;34.00;15.52;;;;;;;-1.55;100.00;91871.81;2126491;27;20019;-89
2021/11/26 02:12:11;;;;;;;35.03;15.38;;;;;;;-1.47;100.00;91873.34;2134818;27;20035;-88
2021/11/26 02:13:12;;;;;;;33.67;16.10;;;;;;;-1.56;100.00;91868.47;2125286;27;20480;-87
2021/11/26 02:14:15;;;;;;;35.30;17.58;;;;;;;-1.55;100.00;91862.09;2121507;27;20494;-86
2021/11/26 02:15:19;;;;;;;36.50;17.17;;;;;;;-1.63;100.00;91851.97;2107568;28;20460;-87
2021/11/26 02:16:20;;;;;;;30.83;15.95;;;;;;;-1.58;100.00;91856.84;2106482;27;20039;-89
2021/11/26 02:17:20;;;;;;;34.55;17.00;;;;;;;-1.62;100.00;91856.09;2109220;27;20420;-89
2021/11/26 02:18:21;;;;;;;37.22;17.27;;;;;;;-1.48;100.00;91850.16;2117533;27;20050;-88
2021/11/26 02:19:24;;;;;;;32.90;17.48;;;;;;;-1.50;100.00;91857.63;2118632;28;20123;-89
2021/11/26 02:20:28;;;;;;;37.25;17.38;;;;;;;-1.52;100.00;91850.13;2123189;27;20031;-90
2021/11/26 02:21:29;;;;;;;34.80;16.30;;;;;;;-1.60;100.00;91848.59;2115966;28;20066;-87
2021/11/26 02:22:30;;;;;;;35.15;17.42;;;;;;;-1.54;100.00;91847.13;2108428;28;20028;-89
2021/11/26 02:23:31;;;;;;;34.20;16.55;;;;;;;-1.51;100.00;91846.38;2104565;28;20392;-90
2021/11/26 02:24:33;;;;;;;36.03;16.98;;;;;;;-1.58;100.00;91847.13;2112920;28;20024;-88
2021/11/26 02:25:35;;;;;;;32.17;17.13;;;;;;;-1.67;100.00;91841.47;2115316;28;20031;-87
2021/11/26 02:26:38;;;;;;;29.58;15.82;;;;;;;-1.63;100.00;91844.84;2103329;28;20381;-88
2021/11/26 02:27:39;;;;;;;35.28;17.15;;;;;;;-1.68;100.00;91847.84;2104734;28;20081;-90
2021/11/26 02:28:42;;;;;;;33.15;16.60;;;;;;;-1.70;100.00;91842.22;2107084;27;20627;-88
2021/11/26 02:29:53;;;;;;;33.10;17.08;;;;;;;-1.61;100.00;91841.88;2107531;28;20040;-88
2021/11/26 02:31:00;;;;;;;32.17;15.57;;;;;;;-1.62;100.00;91845.63;2108082;28;20469;-90
2021/11/26 02:32:06;;;;;;;31.65;15.68;;;;;;;-1.64;100.00;91832.88;2110316;27;20027;-89
2021/11/26 02:33:16;;;;;;;31.73;17.05;;;;;;;-1.60;100.00;91838.13;2122097;27;20034;-90
2021/11/26 02:34:23;;;;;;;32.83;17.08;;;;;;;-1.60;100.00;91833.63;2128154;27;20041;-88
2021/11/26 02:35:31;;;;;;;36.00;16.60;;;;;;;-1.57;100.00;91829.53;2117957;27;20039;-88
2021/11/26 02:36:36;;;;;;;28.60;15.23;;;;;;;-1.61;100.00;91831.41;2108683;28;20039;-90
2021/11/26 02:37:41;;;;;;;33.97;15.95;;;;;;;-1.48;100.00;91829.19;2100913;28;20538;-90
2021/11/26 02:38:42;;;;;;;29.70;16.15;;;;;;;-1.45;100.00;91821.31;2113739;27;20019;-88
2021/11/26 02:39:43;;;;;;;32.15;16.20;;;;;;;-1.58;100.00;91823.56;2112930;28;20032;-88
2021/11/26 02:40:45;;;;;;;33.47;16.83;;;;;;;-1.59;100.00;91829.16;2117737;28;20075;-87
2021/11/26 02:41:47;;;;;;;30.50;15.73;;;;;;;-1.60;100.00;91822.41;2117179;28;20441;-87
2021/11/26 02:42:54;;;;;;;34.92;16.98;;;;;;;-1.56;100.00;91828.41;2112306;28;20761;-88
2021/11/26 02:43:56;;;;;;;31.67;15.77;;;;;;;-1.62;100.00;91824.66;2116584;28;20031;-88
2021/11/26 02:45:01;;;;;;;32.92;16.13;;;;;;;-1.60;100.00;91830.28;2113238;28;20032;-87
2021/11/26 02:46:05;;;;;;;33.80;17.05;;;;;;;-1.64;100.00;91822.41;2113837;27;20468;-88
2021/11/26 02:47:11;;;;;;;32.95;16.23;;;;;;;-1.68;100.00;91829.50;2121277;28;20019;-88
2021/11/26 02:48:13;;;;;;;31.98;17.17;;;;;;;-1.75;100.00;91831.38;2117978;28;20027;-89
2021/11/26 02:49:19;;;;;;;31.20;16.35;;;;;;;-1.60;100.00;91833.63;2113354;28;20056;-89
2021/11/26 02:50:23;;;;;;;33.63;17.02;;;;;;;-1.55;100.00;91838.50;2107823;28;20024;-89
2021/11/26 02:51:24;;;;;;;36.40;17.67;;;;;;;-1.56;100.00;91837.03;2108528;28;20075;-86
2021/11/26 02:52:32;;;;;;;33.85;16.13;;;;;;;-1.57;100.00;91830.28;2104465;28;20793;-89
2021/11/26 02:53:37;;;;;;;29.27;15.10;;;;;;;-1.53;100.00;91828.41;2109872;28;20024;-91
2021/11/26 02:54:38;;;;;;;34.00;15.77;;;;;;;-1.46;100.00;91832.91;2100754;28;20017;-91
2021/11/26 02:55:40;;;;;;;34.60;17.58;;;;;;;-1.54;100.00;91837.41;2106653;28;20019;-89
2021/11/26 02:56:41;;;;;;;32.00;16.17;;;;;;;-1.44;100.00;91838.56;2109152;28;20020;-89
2021/11/26 02:57:43;;;;;;;31.30;15.82;;;;;;;-1.43;100.00;91826.94;2109183;28;20073;-87
2021/11/26 02:58:47;;;;;;;32.03;15.80;;;;;;;-1.40;100.00;91831.44;2119780;28;20012;-90
2021/11/26 02:59:48;;;;;;;32.55;17.27;;;;;;;-1.49;100.00;91825.03;2121251;27;20019;-89
2021/11/26 03:00:54;;;;;;;35.58;17.23;;;;;;;-1.48;100.00;91826.56;2112141;28;20093;-89
2021/11/26 03:01:59;;;;;;;37.10;17.63;;;;;;;-1.54;100.00;91828.78;2104142;28;20020;-89
2021/11/26 03:03:00;;;;;;;32.70;16.40;;;;;;;-1.52;100.00;91823.94;2109995;28;20090;-91
2021/11/26 03:04:01;;;;;;;35.47;18.67;;;;;;;-1.56;100.00;91823.16;2119074;28;20408;-89
2021/11/26 03:05:09;;;;;;;37.15;17.88;;;;;;;-1.58;100.00;91818.31;2099811;28;20059;-89
2021/11/26 03:06:14;;;;;;;30.83;16.23;;;;;;;-1.64;100.00;91816.41;2111021;27;20490;-89
2021/11/26 03:07:20;;;;;;;30.63;15.95;;;;;;;-1.67;100.00;91817.16;2117658;27;20387;-88
2021/11/26 03:08:21;;;;;;;31.38;16.95;;;;;;;-1.73;100.00;91819.38;2097830;28;20413;-87
2021/11/26 03:09:22;;;;;;;35.85;17.80;;;;;;;-1.76;100.00;91822.72;2110560;28;20107;-89
2021/11/26 03:10:28;;;;;;;32.03;17.75;;;;;;;-1.71;100.00;91824.25;2110896;28;20089;-87
2021/11/26 03:11:29;;;;;;;36.55;18.08;;;;;;;-1.77;100.00;91821.25;2103846;28;20027;-89
2021/11/26 03:12:32;;;;;;;37.17;17.58;;;;;;;-1.76;100.00;91817.50;2108549;28;20019;-90
2021/11/26 03:13:38;;;;;;;32.90;16.77;;;;;;;-1.68;100.00;91819.00;2111878;27;20027;-89
2021/11/26 03:14:39;;;;;;;33.30;17.50;;;;;;;-1.70;100.00;91813.41;2119590;27;20015;-88
2021/11/26 03:15:44;;;;;;;37.55;17.92;;;;;;;-1.72;100.00;91813.00;2108371;28;20027;-89
2021/11/26 03:16:45;;;;;;;35.45;17.67;;;;;;;-1.72;100.00;91820.13;2113731;27;20116;-86
2021/11/26 03:17:46;;;;;;;30.35;16.80;;;;;;;-1.65;100.00;91810.44;2118883;28;20405;-90
2021/11/26 03:18:47;;;;;;;32.38;16.67;;;;;;;-1.70;100.00;91813.41;2096923;28;20107;-87
2021/11/26 03:19:48;;;;;;;38.35;18.77;;;;;;;-1.56;100.00;91816.06;2109737;28;20016;-88
2021/11/26 03:20:50;;;;;;;30.50;16.38;;;;;;;-1.46;100.00;91821.69;2112486;28;20361;-89
2021/11/26 03:21:54;;;;;;;36.10;17.80;;;;;;;-1.56;100.00;91818.69;2095275;28;20029;-88
2021/11/26 03:22:56;;;;;;;33.85;16.85;;;;;;;-1.58;100.00;91820.16;2096433;28;20111;-90
2021/11/26 03:23:57;;;;;;;34.72;17.83;;;;;;;-1.60;100.00;91827.66;2097131;28;20024;-87
2021/11/26 03:24:58;;;;;;;37.63;18.02;;;;;;;-1.58;100.00;91815.69;2101184;28;20113;-86
2021/11/26 03:25:59;;;;;;;39.22;18.73;;;;;;;-1.60;100.00;91822.41;2119925;27;20127;-86
2021/11/26 03:27:00;;;;;;;42.30;18.77;;;;;;;-1.72;100.00;91818.25;2113117;28;20023;-86
2021/11/26 03:28:01;;;;;;;36.47;17.55;;;;;;;-1.70;100.00;91826.50;2101085;28;20024;-88
2021/11/26 03:29:02;;;;;;;40.95;17.88;;;;;;;-1.81;100.00;91817.84;2104053;28;20024;-89
2021/11/26 03:30:05;;;;;;;35.28;17.90;;;;;;;-1.86;100.00;91810.38;2110003;27;20186;-90
2021/11/26 03:31:06;;;;;;;39.10;18.45;;;;;;;-1.80;100.00;91812.28;2122453;27;20413;-87
2021/11/26 03:32:07;;;;;;;37.70;18.27;;;;;;;-1.75;100.00;91799.94;2106022;28;20031;-88
2021/11/26 03:33:10;;;;;;;37.63;16.65;;;;;;;-1.61;100.00;91802.59;2112566;28;20090;-90
2021/11/26 03:34:11;;;;;;;35.90;18.58;;;;;;;-1.59;100.00;91805.56;2107052;28;20476;-87
2021/11/26 03:35:14;;;;;;;44.90;19.42;;;;;;;-1.76;100.00;91804.41;2098164;28;20017;-87
2021/11/26 03:36:24;;;;;;;40.42;19.45;;;;;;;-1.77;100.00;91802.91;2097372;28;20021;-88
2021/11/26 03:37:27;;;;;;;38.92;19.63;;;;;;;-1.65;100.00;91810.44;2100930;28;20028;-89
2021/11/26 03:38:29;;;;;;;39.33;19.13;;;;;;;-1.69;100.00;91814.16;2113104;28;20361;-89
2021/11/26 03:39:35;;;;;;;37.13;18.60;;;;;;;-1.74;100.00;91809.28;2104930;28;20023;-90
2021/11/26 03:40:39;;;;;;;40.85;19.02;;;;;;;-1.55;100.00;91807.06;2106408;28;20729;-87
2021/11/26 03:41:44;;;;;;;35.85;18.60;;;;;;;-1.69;100.00;91808.91;2107750;27;20016;-88
2021/11/26 03:42:51;;;;;;;35.58;17.38;;;;;;;-1.72;100.00;91809.66;2102903;28;20020;-88
2021/11/26 03:43:52;;;;;;;36.33;18.45;;;;;;;-1.60;100.00;91801.44;2106480;28;20098;-88
2021/11/26 03:44:53;;;;;;;32.13;17.23;;;;;;;-1.71;100.00;91809.31;2114559;28;20030;-89
2021/11/26 03:45:54;;;;;;;33.70;17.27;;;;;;;-1.74;100.00;91812.66;2106828;28;20027;-89
2021/11/26 03:46:55;;;;;;;35.08;17.55;;;;;;;-1.71;100.00;91808.53;2098284;28;20023;-91
2021/11/26 03:47:57;;;;;;;38.75;18.20;;;;;;;-1.49;100.00;91807.47;2092985;28;20021;-91
2021/11/26 03:48:58;;;;;;;34.70;18.20;;;;;;;-1.71;100.00;91804.06;2094868;28;20032;-91
2021/11/26 03:49:59;;;;;;;33.83;17.63;;;;;;;-1.77;100.00;91798.41;2098411;28;20353;-90
2021/11/26 03:51:00;;;;;;;36.03;18.88;;;;;;;-1.77;100.00;91800.28;2098496;28;20024;-91
2021/11/26 03:52:01;;;;;;;36.70;18.58;;;;;;;-1.84;100.00;91798.41;2114483;28;20019;-89
2021/11/26 03:53:02;;;;;;;36.38;18.73;;;;;;;-1.82;100.00;91795.41;2102320;28;20051;-91
2021/11/26 03:54:03;;;;;;;36.53;18.40;;;;;;;-1.81;100.00;91802.88;2097194;28;20961;-88
2021/11/26 03:55:10;;;;;;;41.00;19.08;;;;;;;-1.79;100.00;91799.91;2098281;28;20028;-88
2021/11/26 03:56:11;;;;;;;38.83;18.20;;;;;;;-1.80;100.00;91798.41;2113617;27;20574;-90
2021/11/26 03:57:13;;;;;;;40.38;19.83;;;;;;;-1.73;100.00;91787.94;2106762;28;20731;-89
2021/11/26 03:58:14;;;;;;;38.72;19.77;;;;;;;-1.77;100.00;91795.06;2098334;28;20116;-88
2021/11/26 03:59:15;;;;;;;40.42;19.85;;;;;;;-1.74;100.00;91796.19;2109197;28;20047;-86
2021/11/26 04:00:17;;;;;;;38.38;19.58;;;;;;;-1.82;100.00;91801.41;2119665;27;20079;-88
2021/11/26 04:01:18;;;;;;;39.25;18.55;;;;;;;-1.78;100.00;91790.94;2106506;28;20511;-88
2021/11/26 04:02:19;;;;;;;39.58;19.42;;;;;;;-1.84;100.00;91793.19;2106312;28;20047;-89
2021/11/26 04:03:20;;;;;;;40.65;19.83;;;;;;;-1.85;100.00;91793.53;2112678;28;20024;-88
2021/11/26 04:04:21;;;;;;;42.47;19.30;;;;;;;-1.78;100.00;91790.94;2114116;28;20451;-85
2021/11/26 04:05:22;;;;;;;40.42;18.98;;;;;;;-1.79;100.00;91792.06;2101228;28;20019;-88
2021/11/26 04:06:23;;;;;;;37.28;18.77;;;;;;;-1.67;100.00;91785.72;2102404;28;20020;-88
2021/11/26 04:07:26;;;;;;;40.85;18.48;;;;;;;-1.84;100.00;91795.03;2110764;28;20484;-85
2021/11/26 04:08:27;;;;;;;37.60;18.08;;;;;;;-1.77;100.00;91790.56;2098011;28;20032;-88
2021/11/26 04:09:28;;;;;;;44.92;21.58;;;;;;;-1.77;100.00;91793.19;2098113;28;20396;-88
2021/11/26 04:10:30;;;;;;;38.40;18.63;;;;;;;-1.74;100.00;91783.84;2096588;28;20020;-88
2021/11/26 04:11:32;;;;;;;39.25;18.42;;;;;;;-1.73;100.00;91785.34;2102377;28;20016;-87
2021/11/26 04:12:33;;;;;;;38.30;18.67;;;;;;;-1.73;100.00;91785.34;2113133;28;20071;-87
2021/11/26 04:13:34;;;;;;;38.88;18.65;;;;;;;-1.76;100.00;91780.81;2109613;28;20077;-88
2021/11/26 04:14:35;;;;;;;37.78;19.08;;;;;;;-1.79;100.00;91781.59;2105162;28;20031;-88
2021/11/26 04:15:37;;;;;;;37.88;18.55;;;;;;;-1.82;100.00;91782.31;2103092;28;20020;-89
2021/11/26 04:16:38;;;;;;;41.05;19.45;;;;;;;-1.86;100.00;91781.56;2111497;28;20076;-90
2021/11/26 04:17:40;;;;;;;38.90;19.85;;;;;;;-1.81;100.00;91781.19;2099474;28;20017;-90
2021/11/26 04:18:41;;;;;;;37.65;19.20;;;;;;;-1.73;100.00;91787.94;2098194;28;20024;-87
2021/11/26 04:19:42;;;;;;;38.70;18.50;;;;;;;-1.66;100.00;91782.00;2106348;28;20031;-87
2021/11/26 04:20:45;;;;;;;42.85;19.33;;;;;;;-1.71;100.00;91788.34;2101937;28;20112;-89
2021/11/26 04:21:46;;;;;;;36.20;18.92;;;;;;;-1.68;100.00;91787.59;2104273;28;20385;-88
2021/11/26 04:22:48;;;;;;;38.30;18.17;;;;;;;-1.70;100.00;91779.38;2104000;28;20035;-87
2021/11/26 04:23:49;;;;;;;36.05;17.17;;;;;;;-1.58;100.00;91784.25;2101195;28;20020;-88
2021/11/26 04:24:50;;;;;;;35.65;17.85;;;;;;;-1.72;100.00;91783.47;2096788;28;20032;-87
2021/11/26 04:25:51;;;;;;;39.22;18.25;;;;;;;-1.75;100.00;91781.59;2105098;28;20016;-88
2021/11/26 04:26:52;;;;;;;35.63;18.30;;;;;;;-1.73;100.00;91781.97;2112392;28;20081;-87
2021/11/26 04:27:56;;;;;;;34.15;17.52;;;;;;;-1.72;100.00;91776.34;2097937;28;20496;-89
2021/11/26 04:28:59;;;;;;;32.58;17.42;;;;;;;-1.75;100.00;91781.59;2106294;28;20032;-89
2021/11/26 04:30:00;;;;;;;34.05;17.77;;;;;;;-1.74;100.00;91775.97;2098559;28;20058;-90
2021/11/26 04:31:03;;;;;;;36.05;18.08;;;;;;;-1.80;100.00;91772.97;2097949;28;20027;-87
2021/11/26 04:32:06;;;;;;;34.72;16.92;;;;;;;-1.78;100.00;91769.97;2101840;28;20047;-88
2021/11/26 04:33:07;;;;;;;33.05;17.02;;;;;;;-1.86;100.00;91774.44;2108968;28;20106;-88
2021/11/26 04:34:11;;;;;;;34.80;17.67;;;;;;;-1.62;100.00;91769.66;2103295;28;20016;-90
2021/11/26 04:35:12;;;;;;;35.78;18.13;;;;;;;-1.35;100.00;91770.78;2096651;28;20026;-88
2021/11/26 04:36:13;;;;;;;34.63;17.10;;;;;;;-1.50;100.00;91777.13;2106165;28;20046;-88
2021/11/26 04:37:14;;;;;;;31.98;16.30;;;;;;;-1.60;100.00;91762.91;2106134;28;20034;-90
2021/11/26 04:38:17;;;;;;;31.88;18.15;;;;;;;-1.68;100.00;91760.66;2095795;28;20047;-88
2021/11/26 04:39:18;;;;;;;34.80;17.40;;;;;;;-1.75;100.00;91758.78;2111348;27;20068;-87
2021/11/26 04:40:19;;;;;;;33.22;16.98;;;;;;;-1.74;100.00;91760.28;2120926;27;20454;-88
2021/11/26 04:41:19;;;;;;;30.25;16.13;;;;;;;-1.75;100.00;91756.16;2097890;28;20020;-93
2021/11/26 04:42:20;;;;;;;34.10;16.83;;;;;;;-1.76;100.00;91754.63;2104902;28;20028;-89
2021/11/26 04:43:23;;;;;;;29.55;17.00;;;;;;;-1.69;100.00;91762.53;2112987;28;20086;-88
2021/11/26 04:44:24;;;;;;;28.58;16.50;;;;;;;-1.78;100.00;91762.88;2110664;28;20023;-90
2021/11/26 04:45:26;;;;;;;32.53;16.83;;;;;;;-1.83;100.00;91763.25;2121229;27;20043;-87
2021/11/26 04:46:27;;;;;;;31.30;16.63;;;;;;;-1.70;100.00;91762.91;2112495;28;20636;-88
2021/11/26 04:47:28;;;;;;;28.40;15.77;;;;;;;-1.67;100.00;91765.50;2093891;28;20024;-87